Latest Weather Observations for Cabramurra

IDN60901

Issued at 9:51 pm EDT Saturday 16 December 2017 (issued every 10 minutes, with the page automatically refreshed every 10 minutes)

About weather observations | Map of Canberra area stations | Latest observations for Canberra area | Other Formats
Station Details ID: 072161 Name: CABRAMURRA SMHEA AWS Lat: -35.94 Lon: 148.38 Height: 1482.4 m
Data from the previous 72 hours. | See also: Recent months at Cabramurra
Date/Time
EDT
Temp
°C
App
Temp
°C
Dew
Point
°C
Rel
Hum
%
Delta-T
°C
Wind Press
QNH
hPa
Press
MSL
hPa
Rain since
9am
mm
Dir  Spd
km/h
Gust
km/h
Spd
kts
Gust
kts
16/09:30pm 18.5 16.8 8.2 51 5.7 SE 7 11 4 6 - - 0.0
16/09:00pm 18.5 16.8 8.5 52 5.6 SE 7 9 4 5 - - 0.0
16/08:30pm 18.4 17.0 8.9 54 5.3 SSE 6 7 3 4 - - 0.0
16/08:00pm 18.8 18.6 9.0 53 5.5 CALM 0 0 0 0 - - 0.0
16/07:30pm 20.1 18.8 9.9 52 5.9 WSW 7 11 4 6 - - 0.0
16/07:00pm 20.9 18.9 10.1 50 6.3 W 11 17 6 9 - - 0.0
16/06:30pm 20.2 18.8 10.9 55 5.5 W 9 15 5 8 - - 0.0
16/06:00pm 20.0 18.7 11.2 57 5.2 WSW 9 13 5 7 - - 0.0
16/05:30pm 19.9 17.7 10.9 56 5.3 W 13 19 7 10 - - 0.0
16/05:00pm 21.4 19.1 11.7 54 5.8 W 15 24 8 13 - - 0.0
16/04:30pm 21.5 19.1 12.6 57 5.4 W 17 24 9 13 - - 0.0
16/04:00pm 20.9 18.9 12.8 60 4.9 W 15 22 8 12 - - 0.0
16/03:30pm 21.1 18.3 11.4 54 5.8 WNW 17 22 9 12 - - 0.0
16/03:00pm 20.3 17.6 11.8 58 5.1 W 17 20 9 11 - - 0.0
16/02:30pm 21.7 20.3 14.4 63 4.6 W 15 20 8 11 - - 0.0
16/02:00pm 20.2 17.5 12.9 63 4.4 WNW 19 32 10 17 - - 0.0
16/01:30pm 20.9 19.1 13.4 62 4.6 W 15 22 8 12 - - 0.0
16/01:00pm 19.7 16.9 12.7 64 4.2 W 19 28 10 15 - - 0.0
16/12:30pm 19.1 16.1 11.9 63 4.3 W 19 26 10 14 - - 0.0
16/12:00pm 19.5 16.8 12.8 65 4.0 W 19 33 10 18 - - 0.0
16/11:30am 19.7 17.2 13.6 68 3.7 W 19 33 10 18 - - 0.0
16/11:00am 18.5 16.1 12.5 68 3.6 W 17 28 9 15 - - 0.0
16/10:30am 17.4 15.8 12.9 75 2.7 NW 13 17 7 9 - - 0.0
16/10:00am 16.9 15.1 12.2 74 2.8 NW 13 19 7 10 - - 0.0
16/09:30am 18.1 16.1 12.8 71 3.2 NW 15 20 8 11 - - 0.0
16/09:00am 17.6 15.9 11.2 66 3.7 NW 11 15 6 8 - - 0.0
16/08:30am 17.1 15.3 10.9 67 3.6 NW 11 15 6 8 - - 0.0
16/08:00am 16.4 15.0 10.9 70 3.2 NNW 9 13 5 7 - - 0.0
16/07:30am 15.3 13.6 11.1 76 2.4 N 11 17 6 9 - - 0.0
16/07:00am 14.8 13.0 11.0 78 2.2 N 11 17 6 9 - - 0.0
16/06:30am 14.1 12.4 11.3 83 1.6 N 11 13 6 7 - - 0.0
16/06:00am 13.6 11.5 11.3 86 1.3 N 13 15 7 8 - - 0.0
16/05:30am 13.9 11.9 11.4 85 1.4 N 13 17 7 9 - - 0.0
16/05:00am 14.0 11.5 11.2 83 1.6 NNW 15 19 8 10 - - 0.0
16/04:30am 14.7 11.5 10.1 74 2.6 NW 17 20 9 11 - - 0.0
16/04:00am 15.1 11.5 9.9 71 2.9 NW 19 24 10 13 - - 0.0
16/03:30am 15.2 12.3 9.8 70 3.0 NW 15 19 8 10 - - 0.0
16/03:00am 14.9 12.2 10.3 74 2.6 NNW 15 19 8 10 - - 0.0
16/02:30am 15.3 12.5 9.9 70 3.0 NNW 15 22 8 12 - - 0.0
16/02:00am 15.6 12.5 10.2 70 3.1 NW 17 26 9 14 - - 0.0
16/01:30am 15.0 12.2 11.4 79 2.1 NNW 17 22 9 12 - - 0.0
16/01:00am 14.8 12.5 11.9 83 1.7 N 15 20 8 11 - - 0.0
16/12:30am 15.2 12.2 12.0 81 1.9 N 19 26 10 14 - - 0.0
16/12:00am 15.6 12.6 11.8 78 2.2 N 19 24 10 13 - - 0.0
 
Date/Time
EDT
Temp
°C
App
Temp
°C
Dew
Point
°C
Rel
Hum
%
Delta-T
°C
Wind Press
QNH
hPa
Press
MSL
hPa
Rain since
9am
mm
Dir  Spd
km/h
Gust
km/h
Spd
kts
Gust
kts
15/11:30pm 16.1 12.8 11.5 74 2.7 N 20 28 11 15 - - 0.0
15/11:00pm 16.9 13.1 11.2 69 3.3 N 22 30 12 16 - - 0.0
15/10:30pm 17.2 14.0 8.6 57 4.8 NW 15 22 8 12 - - 0.0
15/10:00pm 17.6 14.0 8.5 55 5.0 WNW 17 24 9 13 - - 0.0
15/09:30pm 17.5 14.1 9.2 58 4.7 NW 17 26 9 14 - - 0.0
15/09:00pm 17.6 14.7 9.8 60 4.4 NW 15 22 8 12 - - 0.0
15/08:30pm 17.8 14.2 9.7 59 4.6 NW 19 28 10 15 - - 0.0
15/08:00pm 18.3 15.4 9.6 57 4.9 NW 15 22 8 12 - - 0.0
15/07:30pm 18.7 14.8 9.5 55 5.2 WNW 20 33 11 18 - - 0.0
15/07:00pm 18.6 14.6 10.4 59 4.7 WNW 22 35 12 19 - - 0.0
15/06:30pm 20.0 17.1 12.3 61 4.6 WNW 19 32 10 17 - - 0.0
15/06:00pm 19.9 16.7 11.9 60 4.8 WNW 20 33 11 18 - - 0.0
15/05:30pm 20.1 16.3 12.3 61 4.7 WNW 24 39 13 21 - - 0.0
15/05:00pm 19.7 14.6 12.0 61 4.6 W 30 39 16 21 - - 0.0
15/04:30pm 18.5 14.4 11.3 63 4.2 WNW 24 32 13 17 - - 0.0
15/04:00pm 18.5 14.3 11.1 62 4.3 W 24 35 13 19 - - 0.0
15/03:30pm 18.9 15.1 11.0 60 4.6 W 22 35 12 19 - - 0.0
15/03:00pm 18.8 15.4 11.1 61 4.5 WNW 20 33 11 18 - - 0.0
15/02:30pm 19.0 16.0 12.5 66 3.9 NW 20 30 11 16 - - 0.0
15/02:00pm 18.2 15.5 13.5 74 2.9 NW 20 32 11 17 - - 0.0
15/01:30pm 18.2 15.5 12.9 71 3.2 NW 19 30 10 16 - - 0.0
15/01:00pm 18.3 14.3 11.8 66 3.8 WNW 24 37 13 20 - - 0.0
15/12:30pm 18.7 15.5 11.8 64 4.1 WNW 20 28 11 15 - - 0.0
15/12:00pm 18.3 14.8 12.1 67 3.7 WNW 22 35 12 19 - - 0.0
15/11:30am 17.0 15.0 12.7 76 2.6 WNW 15 20 8 11 - - 0.0
15/11:00am 17.0 14.9 12.5 75 2.7 NW 15 22 8 12 - - 0.0
15/10:30am 17.6 15.6 12.7 73 2.9 NW 15 24 8 13 - - 0.0
15/10:00am 16.9 14.6 11.6 71 3.1 NNW 15 20 8 11 - - 0.0
15/09:30am 16.3 13.8 11.2 72 3.0 NNW 15 20 8 11 - - 0.0
15/09:00am 15.5 12.5 10.7 73 2.7 NW 17 24 9 13 - - 1.4
15/08:30am 14.0 11.6 11.3 84 1.5 N 15 20 8 11 - - 1.4
15/08:00am 14.2 11.6 10.8 80 1.9 N 15 22 8 12 - - 1.4
15/07:30am 13.6 10.3 11.0 84 1.5 N 19 30 10 16 - - 1.4
15/07:00am 14.5 10.9 9.9 74 2.6 N 19 30 10 16 - - 1.4
15/06:30am 14.1 10.7 10.5 79 2.0 N 19 26 10 14 - - 1.4
15/06:00am 14.1 11.1 10.5 79 2.0 N 17 24 9 13 - - 1.4
15/05:30am 14.4 10.8 10.6 78 2.2 NNW 20 26 11 14 - - 1.4
15/05:00am 14.3 10.8 10.3 77 2.3 NNW 19 24 10 13 - - 1.4
15/04:30am 14.2 10.9 11.0 81 1.8 N 19 26 10 14 - - 1.4
15/04:00am 13.9 11.4 10.9 82 1.7 N 15 20 8 11 - - 1.4
15/03:30am 14.0 11.3 10.4 79 2.0 N 15 22 8 12 - - 1.4
15/03:00am 13.4 11.2 10.8 84 1.5 N 13 17 7 9 - - 1.4
15/02:30am 13.1 10.6 11.2 88 1.1 NW 15 20 8 11 - - 1.2
15/02:00am 13.2 9.5 11.4 89 1.0 WNW 22 33 12 18 - - 1.0
15/01:30am 13.7 9.0 10.7 82 1.7 WNW 26 37 14 20 - - 0.8
15/01:00am 14.2 10.5 11.4 83 1.6 NW 22 30 12 16 - - 0.8
15/12:30am 14.7 10.3 10.3 75 2.5 WNW 24 33 13 18 - - 0.6
15/12:00am 15.6 12.2 9.1 65 3.6 WNW 17 24 9 13 - - 0.6
 
Date/Time
EDT
Temp
°C
App
Temp
°C
Dew
Point
°C
Rel
Hum
%
Delta-T
°C
Wind Press
QNH
hPa
Press
MSL
hPa
Rain since
9am
mm
Dir  Spd
km/h
Gust
km/h
Spd
kts
Gust
kts
14/11:30pm 16.1 13.0 8.8 62 4.0 WNW 15 22 8 12 - - 0.6
14/11:00pm 15.7 12.9 8.7 63 3.9 W 13 20 7 11 - - 0.6
14/10:30pm 16.0 12.4 8.5 61 4.1 WNW 17 20 9 11 - - 0.6
14/10:00pm 15.8 11.7 8.5 62 4.0 W 20 28 11 15 - - 0.6
14/09:30pm 15.1 10.1 9.5 69 3.1 W 26 43 14 23 - - 0.6
14/09:13pm 16.6 10.3 8.8 60 4.3 WNW 32 50 17 27 - - 0.4
14/09:00pm 16.4 9.9 8.1 58 4.5 WNW 32 48 17 26 - - 0.4
14/08:49pm 17.8 11.5 7.5 51 5.6 NW 30 48 16 26 - - 0.2
14/08:30pm 18.9 11.9 6.1 43 6.8 NW 32 43 17 23 - - 0.2
14/08:08pm 18.9 11.9 6.1 43 6.8 NW 32 50 17 27 - - 0.2
14/08:00pm 19.2 12.2 6.0 42 7.1 NW 32 46 17 25 - - 0.2
14/07:30pm 19.1 12.2 6.6 44 6.7 NW 32 54 17 29 - - 0.2
14/07:00pm 19.4 13.0 6.8 44 6.8 NW 30 50 16 27 - - 0.2
14/06:32pm 19.6 13.1 6.7 43 7.0 NW 30 50 16 27 - - 0.2
14/06:30pm 19.6 13.2 7.0 44 6.9 NW 30 44 16 24 - - 0.2
14/06:07pm 19.5 13.2 7.6 46 6.6 WNW 30 48 16 26 - - 0.2
14/06:00pm 19.1 12.9 7.8 48 6.2 WNW 30 44 16 24 - - 0.2
14/05:30pm 19.5 13.9 8.8 50 6.0 WNW 28 41 15 22 - - 0.2
14/05:00pm 19.4 14.9 9.9 54 5.5 WNW 24 35 13 19 - - 0.2
14/04:30pm 19.4 15.7 10.1 55 5.4 NW 20 30 11 16 - - 0.2
14/04:09pm 19.4 13.1 9.6 53 5.6 NW 33 56 18 30 - - 0.2
14/04:00pm 18.7 12.8 10.3 58 4.8 WNW 32 46 17 25 - - 0.2
14/03:58pm 18.6 13.4 10.2 58 4.8 WNW 28 46 15 25 - - 0.2
14/03:30pm 20.2 16.2 10.3 53 5.7 NNW 22 33 12 18 - - 0.0
14/03:00pm 20.9 16.4 10.1 50 6.3 NW 24 41 13 22 - - 0.0
14/02:30pm 19.4 13.1 9.6 53 5.6 NW 33 52 18 28 - - 0.0
14/02:03pm 20.4 15.2 9.0 48 6.5 NW 26 46 14 25 - - 0.0
14/02:00pm 20.4 16.2 9.9 51 6.1 NNW 22 39 12 21 - - 0.0
14/01:33pm 19.9 13.5 8.6 48 6.4 NNW 32 52 17 28 - - 0.0
14/01:30pm 19.9 14.0 9.2 50 6.1 NNW 30 44 16 24 - - 0.0
14/01:00pm 19.8 14.1 9.7 52 5.8 N 30 41 16 22 - - 0.0
14/12:30pm 19.9 15.7 9.8 52 5.8 NNW 22 41 12 22 - - 0.0
14/12:00pm 19.6 14.9 9.2 51 5.9 N 24 46 13 25 - - 0.0
14/11:30am 19.0 13.9 9.2 53 5.5 NNW 26 43 14 23 - - 0.0
14/11:00am 18.2 13.0 9.0 55 5.2 N 26 35 14 19 - - 0.0
14/10:30am 17.9 12.6 8.5 54 5.2 NNW 26 44 14 24 - - 0.0
14/10:00am 17.7 11.5 8.0 53 5.3 N 30 41 16 22 - - 0.0
14/09:30am 17.6 11.8 7.9 53 5.3 N 28 39 15 21 - - 0.0
14/09:00am 17.1 10.8 7.5 53 5.2 N 30 44 16 24 - - 0.0
14/08:39am 17.2 11.3 7.3 52 5.4 N 28 46 15 25 - - 0.0
14/08:30am 17.6 10.8 7.1 50 5.7 N 32 44 17 24 - - 0.0
14/08:00am 17.6 10.8 6.8 49 5.8 N 32 46 17 25 - - 0.0
14/07:30am 17.6 10.1 6.2 47 6.1 N 35 54 19 29 - - 0.0
14/07:00am 17.6 10.6 6.2 47 6.1 N 32 46 17 25 - - 0.0
14/06:56am 17.5 10.6 6.4 48 5.9 N 32 50 17 27 - - 0.0
14/06:30am 18.0 11.0 6.2 46 6.3 N 32 48 17 26 - - 0.0
14/06:00am 17.9 11.7 6.1 46 6.3 N 28 44 15 24 - - 0.0
14/05:41am 18.1 11.5 6.0 45 6.4 N 30 48 16 26 - - 0.0
14/05:30am 18.1 12.6 5.7 44 6.5 N 24 33 13 18 - - 0.0
14/05:00am 18.2 13.9 5.4 43 6.7 N 17 24 9 13 - - 0.0
14/04:30am 18.7 12.7 5.5 42 7.0 N 26 37 14 20 - - 0.0
14/04:13am 19.1 11.9 5.2 40 7.3 N 32 50 17 27 - - 0.0
14/04:00am 19.4 12.0 5.1 39 7.5 N 33 50 18 27 - - 0.0
14/03:30am 19.8 11.9 4.3 36 8.1 N 35 48 19 26 - - 0.0
14/03:00am 19.8 12.8 1.7 30 8.9 N 28 39 15 21 - - 0.0
14/02:30am 19.8 13.8 0.8 28 9.2 N 22 32 12 17 - - 0.0
14/02:00am 19.8 13.4 0.8 28 9.2 N 24 37 13 20 - - 0.0
14/01:30am 20.2 14.1 0.1 26 9.7 N 22 28 12 15 - - 0.0
14/01:00am 20.3 14.5 0.2 26 9.7 N 20 26 11 14 - - 0.0
14/12:30am 20.3 14.6 0.7 27 9.5 N 20 28 11 15 - - 0.0
14/12:00am 20.5 15.0 0.9 27 9.6 N 19 28 10 15 - - 0.0
 
Date/Time
EDT
Temp
°C
App
Temp
°C
Dew
Point
°C
Rel
Hum
%
Delta-T
°C
Wind Press
QNH
hPa
Press
MSL
hPa
Rain since
9am
mm
Dir  Spd
km/h
Gust
km/h
Spd
kts
Gust
kts
13/11:30pm 20.1 15.6 2.0 30 9.0 N 15 20 8 11 - - 0.0
13/11:00pm 20.1 15.6 2.0 30 9.0 N 15 20 8 11 - - 0.0
13/10:30pm 20.2 16.4 1.6 29 9.2 N 11 15 6 8 - - 0.0
13/10:00pm 20.3 16.3 0.7 27 9.5 NNW 11 13 6 7 - - 0.0

Latest Capital City Observations: Canberra | Sydney | Melbourne | Brisbane | Adelaide | Perth | Hobart | Darwin

Other Formats:

Comma delimited format used in spreadsheet applications
http://www.bom.gov.au/fwo/IDN60903/IDN60903.95916.axf

JavaScript Object Notation format (JSON) in row-major order
http://www.bom.gov.au/fwo/IDN60903/IDN60903.95916.json